KEST/EST METAR and TAF weather

Enter ICAO airport designator
Station Type Date Time Source
KEST METAR 2021/09/27 06:52 UTC NOAA

KEST 270652Z AUTO 21006KT 10SM CLR 16/12 A2972 RMK AO2 SLP055 T01610117


Station Type Date Time Source
KEST Decoded METAR 2021/09/27 06:52 UTC NOAA

ESTHERVILLE MUNICIPAL AIRPORT , IA, United States (KEST) 43-24N 94-45W 401M
Sep 27, 2021 - 02:52 AM EDT / 2021.09.27 0652 UTC
Wind: from the SSW (210 degrees) at 7 MPH (6 KT):0
Visibility: 10 mile(s):0
Sky conditions: clear
Temperature: 61.0 F (16.1 C)
Dew Point: 53.1 F (11.7 C)
Relative Humidity: 75%
Pressure (altimeter): 29.72 in. Hg (1006 hPa)
ob: KEST 270652Z AUTO 21006KT 10SM CLR 16/12 A2972 RMK AO2 SLP055 T01610117
cycle: 7

Station Type Date Time Source
KEST TAF UTC NOAA

Error!

Example: see airport list